ADDS METAR Data INFO
IDs: Format: Raw Decoded Include TAF

Data at: 0144 UTC 18 Oct 2017

KHBV 180135Z AUTO 00000KT 10SM CLR 18/06 A3016 RMK AO2 T01840057
KHBV 180115Z AUTO 00000KT 10SM CLR 19/05 A3016 RMK AO2 T01940054
KHBV 180055Z AUTO 00000KT 10SM CLR 21/05 A3016 RMK AO2 T02060050
KHBV 180035Z AUTO 00000KT 10SM CLR 22/05 A3016 RMK AO2 T02170046
KHBV 180015Z AUTO 00000KT 10SM CLR 23/05 A3015 RMK AO2 T02280046
KHBV 172355Z AUTO 07004KT 10SM CLR 24/04 A3015 RMK AO2 T02410040 10364 20097
KHBV 172335Z AUTO 07004KT 10SM CLR 25/04 A3014 RMK AO2 T02520036
KHBV 172315Z AUTO 08004KT 10SM CLR 26/04 A3014 RMK AO2 T02590037
KHBV 172255Z AUTO 08005KT 10SM CLR 26/04 A3014 RMK AO2 T02630035
KHBV 172235Z AUTO 09004KT 10SM CLR 26/04 A3014 RMK AO2 T02630035
KHBV 172215Z AUTO 00000KT 10SM CLR 26/04 A3015 RMK AO2 T02640035
KHBV 172155Z AUTO 05006KT 10SM CLR 26/03 A3015 RMK AO2 T02640033
KHBV 172135Z AUTO 36003KT 10SM CLR 26/03 A3015 RMK AO2 T02630030
KHBV 172115Z AUTO 02005KT 10SM CLR 26/04 A3016 RMK AO2 T02620038
KHBV 172055Z AUTO 33003KT 10SM CLR 26/04 A3016 RMK AO2 T02590036
KHBV 172035Z AUTO 01006KT 10SM CLR 26/03 A3017 RMK AO2 T02610032
KHBV 172015Z AUTO 06004KT 10SM CLR 26/03 A3017 RMK AO2 T02560032
KHBV 171955Z AUTO 00000KT 10SM CLR 26/04 A3018 RMK AO2 T02560035
KHBV 171935Z AUTO 00000KT 4SM HZ CLR 25/04 A3019 RMK AO2 T02530038
KHBV 171915Z AUTO 00000KT 5SM HZ CLR 25/04 A3020 RMK AO2 T02480038
KHBV 171855Z AUTO 34005KT 4SM HZ CLR 25/04 A3021 RMK AO2 T02470036
KHBV 171835Z AUTO 02007KT 350V070 7SM CLR 24/03 A3023 RMK AO2 T02420032
KHBV 171815Z AUTO 02006KT 10SM CLR 24/04 A3025 RMK AO2 T02380038
KHBV 171755Z AUTO 08008KT 5SM HZ CLR 23/04 A3025 RMK AO2 T02340038 10364 20097
KHBV 171735Z AUTO 06007KT 5SM HZ CLR 23/04 A3027 RMK AO2 T02300042
KHBV 171715Z AUTO 03004KT 3SM HZ CLR 23/04 A3028 RMK AO2 T02260042
KHBV 171655Z AUTO 11003KT 5SM HZ CLR 22/05 A3028 RMK AO2 T02210045
KHBV 171635Z AUTO 05005KT 10SM CLR 22/04 A3029 RMK AO2 T02190042
KHBV 171615Z AUTO 00000KT 10SM CLR 21/04 A3030 RMK AO2 T02110043
KHBV 171555Z AUTO 00000KT 10SM CLR 21/05 A3030 RMK AO2 T02060046
KHBV 171535Z AUTO 09003KT 10SM CLR 20/05 A3030 RMK AO2 T02020048
KHBV 171515Z AUTO 07003KT 10SM CLR 19/05 A3030 RMK AO2 T01940054
KHBV 171455Z AUTO 05004KT 10SM CLR 18/06 A3030 RMK AO2 T01820063
KHBV 171435Z AUTO 07004KT 10SM CLR 17/07 A3030 RMK AO2 T01670065
KHBV 171415Z AUTO 04003KT 10SM CLR 15/07 A3029 RMK AO2 T01520065
KHBV 171355Z AUTO 02004KT 10SM CLR 14/06 A3029 RMK AO2 T01380062
KHBV 171335Z AUTO 36003KT 10SM CLR 12/06 A3028 RMK AO2 T01210059
KHBV 171315Z AUTO 34005KT 10SM CLR 11/06 A3028 RMK AO2 T01050056
KHBV 171255Z AUTO 34005KT 10SM CLR 10/05 A3027 RMK AO2 T00980052
KHBV 171235Z AUTO 34006KT 10SM CLR 10/05 A3027 RMK AO2 T01000050
KHBV 171215Z AUTO 34005KT 10SM CLR 10/05 A3026 RMK AO2 T01010051
KHBV 171155Z AUTO 34006KT 10SM CLR 10/05 A3025 RMK AO2 T00990051 10364 20099
KHBV 171135Z AUTO 35005KT 10SM CLR 10/05 A3025 RMK AO2 T01030051
KHBV 171115Z AUTO 35006KT 10SM CLR 11/05 A3024 RMK AO2 T01100051
KHBV 171055Z AUTO 35007KT 10SM CLR 11/05 A3024 RMK AO2 T01090052
KHBV 171035Z AUTO 34006KT 10SM CLR 11/05 A3024 RMK AO2 T01080052
KHBV 171015Z AUTO 34007KT 10SM CLR 11/05 A3024 RMK AO2 T01090052
KHBV 170955Z AUTO 34007KT 10SM CLR 11/05 A3023 RMK AO2 T01110052
KHBV 170935Z AUTO 34006KT 10SM CLR 11/05 A3023 RMK AO2 T01130052
KHBV 170915Z AUTO 34006KT 10SM CLR 12/05 A3024 RMK AO2 T01150052
KHBV 170855Z AUTO 34006KT 10SM CLR 12/05 A3024 RMK AO2 T01150053
KHBV 170835Z AUTO 34006KT 10SM CLR 12/05 A3024 RMK AO2 T01190053
KHBV 170815Z AUTO 34006KT 10SM CLR 12/05 A3025 RMK AO2 T01220052
KHBV 170755Z AUTO 34006KT 10SM CLR 13/05 A3025 RMK AO2 T01260051
KHBV 170735Z AUTO 34006KT 10SM CLR 13/05 A3025 RMK AO2 T01270051
KHBV 170715Z AUTO 33006KT 10SM CLR 13/05 A3025 RMK AO2 T01270052
KHBV 170655Z AUTO 00000KT 10SM CLR 13/05 A3026 RMK AO2 T01260052
KHBV 170635Z AUTO 00000KT 10SM CLR 13/05 A3026 RMK AO2 T01290052
KHBV 170615Z AUTO 00000KT 10SM CLR 13/05 A3026 RMK AO2 T01280052
KHBV 170555Z AUTO 00000KT 10SM CLR 13/05 A3027 RMK AO2 T01260054 10364 20126 403640126
KHBV 170535Z AUTO 00000KT 10SM CLR 13/06 A3027 RMK AO2 T01280055
KHBV 170515Z AUTO 34005KT 10SM CLR 13/06 A3028 RMK AO2 T01290055
KHBV 170455Z AUTO 34006KT 10SM CLR 14/06 A3028 RMK AO2 T01350055
KHBV 170435Z AUTO 34007KT 10SM CLR 14/06 A3028 RMK AO2 T01380055
KHBV 170415Z AUTO 34007KT 10SM CLR 14/05 A3028 RMK AO2 T01400054
KHBV 170355Z AUTO 34005KT 10SM CLR 15/05 A3028 RMK AO2 T01450052
KHBV 170335Z AUTO 33005KT 10SM CLR 15/05 A3027 RMK AO2 T01480053
KHBV 170315Z AUTO 33004KT 10SM CLR 15/05 A3027 RMK AO2 T01520053
KHBV 170255Z AUTO 33006KT 10SM CLR 16/05 A3027 RMK AO2 T01560054
KHBV 170235Z AUTO 33006KT 10SM CLR 16/06 A3027 RMK AO2 T01560057
KHBV 170215Z AUTO 34005KT 10SM CLR 16/06 A3027 RMK AO2 T01590057
KHBV 170155Z AUTO 34005KT 10SM CLR 17/06 A3026 RMK AO2 T01660057
KHBV 170135Z AUTO 34006KT 10SM CLR 17/06 A3026 RMK AO2 T01690059
KHBV 170115Z AUTO 34006KT 10SM CLR 18/06 A3025 RMK AO2 T01790056
KHBV 170055Z AUTO 01004KT 10SM CLR 20/05 A3024 RMK AO2 T01950050
KHBV 170035Z AUTO 01005KT 10SM CLR 20/05 A3024 RMK AO2 T02030045
KHBV 170015Z AUTO 00000KT 10SM CLR 22/04 A3023 RMK AO2 T02170037
KHBV 162355Z AUTO 36004KT 10SM CLR 23/03 A3023 RMK AO2 T02300031 10364 20160
KHBV 162335Z AUTO 36008KT 10SM CLR 24/03 A3022 RMK AO2 T02370029
KHBV 162315Z AUTO 01007KT 10SM CLR 24/03 A3022 RMK AO2 T02420027
KHBV 162255Z AUTO 01010G14KT 10SM CLR 25/02 A3022 RMK AO2 T02450023
KHBV 162235Z AUTO 36010KT 10SM CLR 25/03 A3021 RMK AO2 T02460026
KHBV 162215Z AUTO 01010G18KT 10SM CLR 25/03 A3021 RMK AO2 T02460029
KHBV 162155Z AUTO 02009KT 10SM CLR 25/03 A3021 RMK AO2 T02470032
KHBV 162135Z AUTO 01012G15KT 10SM CLR 25/04 A3021 RMK AO2 T02480036
KHBV 162115Z AUTO 36010G16KT 10SM CLR 25/04 A3022 RMK AO2 T02460038
KHBV 162055Z AUTO 02010G19KT 10SM CLR 24/04 A3022 RMK AO2 T02440042
KHBV 162035Z AUTO 35011G18KT 10SM CLR 24/05 A3023 RMK AO2 T02430045
KHBV 162015Z AUTO 34011G20KT 10SM CLR 24/05 A3024 RMK AO2 T02400045
KHBV 161955Z AUTO 36011G20KT 10SM CLR 24/05 A3025 RMK AO2 T02390052
KHBV 161935Z AUTO 02012G16KT 10SM CLR 24/05 A3025 RMK AO2 T02370053
KHBV 161915Z AUTO 36012G20KT 10SM CLR 23/05 A3027 RMK AO2 T02330054
KHBV 161855Z AUTO 34014KT 10SM CLR 23/06 A3028 RMK AO2 T02300057
KHBV 161835Z AUTO 36013G18KT 10SM CLR 23/06 A3029 RMK AO2 T02300060
KHBV 161815Z AUTO 36016G21KT 10SM CLR 23/06 A3030 RMK AO2 T02260059
KHBV 161755Z AUTO 36013G19KT 10SM CLR 22/06 A3031 RMK AO2 T02230057 10364 20160
KHBV 161735Z AUTO 36013G18KT 10SM CLR 22/06 A3032 RMK AO2 T02170055
KHBV 161715Z AUTO 03012G17KT 10SM CLR 21/05 A3033 RMK AO2 T02130051
KHBV 161655Z AUTO 01011G20KT 10SM CLR 21/05 A3034 RMK AO2 T02070051
KHBV 161635Z AUTO 01011G20KT 10SM CLR 20/05 A3035 RMK AO2 T02030050
KHBV 161615Z AUTO 36014G20KT 10SM CLR 20/05 A3035 RMK AO2 T01980052
KHBV 161555Z AUTO 01016KT 10SM CLR 19/05 A3036 RMK AO2 T01910051
KHBV 161535Z AUTO 01015G21KT 10SM SCT090 18/05 A3035 RMK AO2 T01810052
KHBV 161515Z AUTO 01012G18KT 10SM BKN090 18/05 A3035 RMK AO2 T01780050
KHBV 161455Z AUTO 01016G20KT 10SM SCT070 SCT090 18/05 A3035 RMK AO2 T01780047
KHBV 161435Z AUTO 02015G22KT 10SM BKN070 18/05 A3034 RMK AO2 T01750046
KHBV 161415Z AUTO 01015G21KT 10SM OVC070 17/05 A3033 RMK AO2 T01710045
KHBV 161355Z AUTO 01015G21KT 10SM BKN070 17/05 A3033 RMK AO2 T01670047